sensor_id;sensor_type;location;lat;lon;timestamp;P1;durP1;ratioP1;P2;durP2;ratioP2
2928;SDS011;1474;51.460;7.150;2023-02-21T00:01:32;22.13;;;12.00;;
2928;SDS011;1474;51.460;7.150;2023-02-21T00:04:17;21.65;;;11.20;;
2928;SDS011;1474;51.460;7.150;2023-02-21T00:07:01;23.13;;;10.23;;
2928;SDS011;1474;51.460;7.150;2023-02-21T00:09:45;22.10;;;12.23;;
2928;SDS011;1474;51.460;7.150;2023-02-21T00:12:30;27.75;;;12.93;;
2928;SDS011;1474;51.460;7.150;2023-02-21T00:15:14;26.33;;;12.63;;
2928;SDS011;1474;51.460;7.150;2023-02-21T00:17:58;17.23;;;11.25;;
2928;SDS011;1474;51.460;7.150;2023-02-21T00:20:43;24.92;;;13.80;;
2928;SDS011;1474;51.460;7.150;2023-02-21T00:23:27;23.58;;;11.85;;
2928;SDS011;1474;51.460;7.150;2023-02-21T00:26:18;26.88;;;14.02;;
2928;SDS011;1474;51.460;7.150;2023-02-21T00:29:03;26.50;;;13.00;;
2928;SDS011;1474;51.460;7.150;2023-02-21T00:31:48;25.35;;;12.65;;
2928;SDS011;1474;51.460;7.150;2023-02-21T00:34:32;22.85;;;11.90;;
2928;SDS011;1474;51.460;7.150;2023-02-21T00:37:16;22.23;;;13.38;;
2928;SDS011;1474;51.460;7.150;2023-02-21T00:40:01;26.17;;;13.30;;
2928;SDS011;1474;51.460;7.150;2023-02-21T00:42:45;28.38;;;13.13;;
2928;SDS011;1474;51.460;7.150;2023-02-21T00:45:29;23.52;;;12.57;;
2928;SDS011;1474;51.460;7.150;2023-02-21T00:48:18;24.33;;;12.13;;
2928;SDS011;1474;51.460;7.150;2023-02-21T00:51:06;27.45;;;14.13;;
2928;SDS011;1474;51.460;7.150;2023-02-21T00:53:51;27.27;;;13.95;;
2928;SDS011;1474;51.460;7.150;2023-02-21T00:56:36;25.83;;;14.30;;
2928;SDS011;1474;51.460;7.150;2023-02-21T00:59:20;26.58;;;13.00;;
2928;SDS011;1474;51.460;7.150;2023-02-21T01:02:05;31.08;;;15.10;;
2928;SDS011;1474;51.460;7.150;2023-02-21T01:04:49;25.08;;;13.75;;
2928;SDS011;1474;51.460;7.150;2023-02-21T01:07:34;27.02;;;14.02;;
2928;SDS011;1474;51.460;7.150;2023-02-21T01:10:18;25.55;;;13.57;;
2928;SDS011;1474;51.460;7.150;2023-02-21T01:13:03;31.10;;;14.45;;
2928;SDS011;1474;51.460;7.150;2023-02-21T01:15:47;35.60;;;16.27;;
2928;SDS011;1474;51.460;7.150;2023-02-21T01:18:31;31.77;;;15.95;;
2928;SDS011;1474;51.460;7.150;2023-02-21T01:21:16;30.50;;;15.73;;
2928;SDS011;1474;51.460;7.150;2023-02-21T01:24:02;27.38;;;13.65;;
2928;SDS011;1474;51.460;7.150;2023-02-21T01:26:47;34.08;;;14.60;;
2928;SDS011;1474;51.460;7.150;2023-02-21T01:29:32;24.90;;;12.60;;
2928;SDS011;1474;51.460;7.150;2023-02-21T01:32:16;26.38;;;13.57;;
2928;SDS011;1474;51.460;7.150;2023-02-21T01:35:00;28.95;;;14.65;;
2928;SDS011;1474;51.460;7.150;2023-02-21T01:37:45;30.73;;;14.38;;
2928;SDS011;1474;51.460;7.150;2023-02-21T01:40:29;28.83;;;15.73;;
2928;SDS011;1474;51.460;7.150;2023-02-21T01:43:18;26.23;;;14.73;;
2928;SDS011;1474;51.460;7.150;2023-02-21T01:46:03;32.67;;;16.13;;
2928;SDS011;1474;51.460;7.150;2023-02-21T01:48:49;25.77;;;13.90;;
2928;SDS011;1474;51.460;7.150;2023-02-21T01:51:37;31.40;;;15.73;;
2928;SDS011;1474;51.460;7.150;2023-02-21T01:54:24;34.20;;;15.73;;
2928;SDS011;1474;51.460;7.150;2023-02-21T01:57:11;30.45;;;14.40;;
2928;SDS011;1474;51.460;7.150;2023-02-21T01:59:56;27.77;;;14.93;;
2928;SDS011;1474;51.460;7.150;2023-02-21T02:06:06;28.58;;;13.32;;
2928;SDS011;1474;51.460;7.150;2023-02-21T02:09:05;26.23;;;14.02;;
2928;SDS011;1474;51.460;7.150;2023-02-21T02:32:03;44.50;;;17.58;;
2928;SDS011;1474;51.460;7.150;2023-02-21T02:42:45;39.45;;;18.83;;
2928;SDS011;1474;51.460;7.150;2023-02-21T02:45:18;33.22;;;15.85;;
2928;SDS011;1474;51.460;7.150;2023-02-21T02:48:01;41.35;;;17.60;;
2928;SDS011;1474;51.460;7.150;2023-02-21T02:50:51;31.20;;;16.50;;
2928;SDS011;1474;51.460;7.150;2023-02-21T02:53:19;34.13;;;18.45;;
2928;SDS011;1474;51.460;7.150;2023-02-21T02:55:51;35.40;;;15.75;;
2928;SDS011;1474;51.460;7.150;2023-02-21T02:58:20;36.60;;;15.95;;
2928;SDS011;1474;51.460;7.150;2023-02-21T03:14:57;28.77;;;15.00;;
2928;SDS011;1474;51.460;7.150;2023-02-21T03:17:29;31.98;;;15.75;;
2928;SDS011;1474;51.460;7.150;2023-02-21T03:20:03;25.77;;;13.48;;
2928;SDS011;1474;51.460;7.150;2023-02-21T03:22:31;26.33;;;14.65;;
2928;SDS011;1474;51.460;7.150;2023-02-21T03:24:57;32.70;;;16.30;;
2928;SDS011;1474;51.460;7.150;2023-02-21T03:27:25;28.38;;;14.05;;
2928;SDS011;1474;51.460;7.150;2023-02-21T03:29:52;27.95;;;14.40;;
2928;SDS011;1474;51.460;7.150;2023-02-21T03:32:24;35.40;;;15.43;;
2928;SDS011;1474;51.460;7.150;2023-02-21T03:35:09;35.75;;;15.38;;
2928;SDS011;1474;51.460;7.150;2023-02-21T03:37:39;27.42;;;15.73;;
2928;SDS011;1474;51.460;7.150;2023-02-21T03:40:27;32.08;;;14.52;;
2928;SDS011;1474;51.460;7.150;2023-02-21T03:42:55;26.20;;;13.85;;
2928;SDS011;1474;51.460;7.150;2023-02-21T03:45:21;28.45;;;14.57;;
2928;SDS011;1474;51.460;7.150;2023-02-21T03:47:47;31.02;;;13.90;;
2928;SDS011;1474;51.460;7.150;2023-02-21T03:50:13;29.08;;;14.57;;
2928;SDS011;1474;51.460;7.150;2023-02-21T03:52:39;29.15;;;15.60;;
2928;SDS011;1474;51.460;7.150;2023-02-21T03:55:05;27.60;;;15.20;;
2928;SDS011;1474;51.460;7.150;2023-02-21T03:57:32;24.35;;;14.05;;
2928;SDS011;1474;51.460;7.150;2023-02-21T03:59:58;31.73;;;16.15;;
2928;SDS011;1474;51.460;7.150;2023-02-21T04:02:23;29.20;;;13.77;;
2928;SDS011;1474;51.460;7.150;2023-02-21T04:04:49;25.83;;;14.93;;
2928;SDS011;1474;51.460;7.150;2023-02-21T04:07:16;30.58;;;14.95;;
2928;SDS011;1474;51.460;7.150;2023-02-21T04:09:43;28.20;;;14.98;;
2928;SDS011;1474;51.460;7.150;2023-02-21T04:12:09;28.90;;;14.98;;
2928;SDS011;1474;51.460;7.150;2023-02-21T04:14:34;30.63;;;15.02;;
2928;SDS011;1474;51.460;7.150;2023-02-21T04:17:00;28.85;;;16.13;;
2928;SDS011;1474;51.460;7.150;2023-02-21T04:19:26;32.75;;;15.65;;
2928;SDS011;1474;51.460;7.150;2023-02-21T04:21:51;33.90;;;16.23;;
2928;SDS011;1474;51.460;7.150;2023-02-21T04:24:17;30.23;;;14.68;;
2928;SDS011;1474;51.460;7.150;2023-02-21T04:26:43;29.95;;;14.18;;
2928;SDS011;1474;51.460;7.150;2023-02-21T04:29:09;27.08;;;14.07;;
2928;SDS011;1474;51.460;7.150;2023-02-21T04:31:36;33.83;;;14.90;;
2928;SDS011;1474;51.460;7.150;2023-02-21T04:34:01;37.03;;;16.67;;
2928;SDS011;1474;51.460;7.150;2023-02-21T04:36:27;31.27;;;16.45;;
2928;SDS011;1474;51.460;7.150;2023-02-21T04:38:53;30.45;;;15.52;;
2928;SDS011;1474;51.460;7.150;2023-02-21T04:41:19;28.88;;;14.48;;
2928;SDS011;1474;51.460;7.150;2023-02-21T04:43:45;29.55;;;15.13;;
2928;SDS011;1474;51.460;7.150;2023-02-21T04:46:14;29.92;;;14.20;;
2928;SDS011;1474;51.460;7.150;2023-02-21T04:51:11;25.70;;;14.50;;
2928;SDS011;1474;51.460;7.150;2023-02-21T04:53:38;29.25;;;15.73;;
2928;SDS011;1474;51.460;7.150;2023-02-21T04:56:03;31.27;;;14.38;;
2928;SDS011;1474;51.460;7.150;2023-02-21T04:58:30;31.55;;;16.77;;
2928;SDS011;1474;51.460;7.150;2023-02-21T05:00:56;30.25;;;15.40;;
2928;SDS011;1474;51.460;7.150;2023-02-21T05:03:21;28.02;;;14.65;;
2928;SDS011;1474;51.460;7.150;2023-02-21T05:05:48;34.28;;;16.42;;
2928;SDS011;1474;51.460;7.150;2023-02-21T05:08:14;33.75;;;15.40;;
2928;SDS011;1474;51.460;7.150;2023-02-21T05:10:40;33.38;;;14.90;;
2928;SDS011;1474;51.460;7.150;2023-02-21T05:13:06;34.10;;;16.33;;
2928;SDS011;1474;51.460;7.150;2023-02-21T05:15:31;31.98;;;15.85;;
2928;SDS011;1474;51.460;7.150;2023-02-21T05:17:58;33.65;;;16.40;;
2928;SDS011;1474;51.460;7.150;2023-02-21T05:20:23;31.85;;;15.30;;
2928;SDS011;1474;51.460;7.150;2023-02-21T05:22:49;29.05;;;14.45;;
2928;SDS011;1474;51.460;7.150;2023-02-21T05:25:16;35.55;;;16.58;;
2928;SDS011;1474;51.460;7.150;2023-02-21T05:27:43;36.15;;;16.95;;
2928;SDS011;1474;51.460;7.150;2023-02-21T05:30:09;33.35;;;15.93;;
2928;SDS011;1474;51.460;7.150;2023-02-21T05:32:36;37.13;;;16.15;;
2928;SDS011;1474;51.460;7.150;2023-02-21T05:35:08;33.03;;;16.65;;
2928;SDS011;1474;51.460;7.150;2023-02-21T05:37:34;33.67;;;16.08;;
2928;SDS011;1474;51.460;7.150;2023-02-21T05:40:00;32.60;;;15.55;;
2928;SDS011;1474;51.460;7.150;2023-02-21T05:42:26;33.95;;;15.20;;
2928;SDS011;1474;51.460;7.150;2023-02-21T05:44:52;37.03;;;17.27;;
2928;SDS011;1474;51.460;7.150;2023-02-21T05:47:17;30.52;;;15.63;;
2928;SDS011;1474;51.460;7.150;2023-02-21T05:49:43;36.33;;;16.42;;
2928;SDS011;1474;51.460;7.150;2023-02-21T05:52:13;34.90;;;15.98;;
2928;SDS011;1474;51.460;7.150;2023-02-21T05:54:40;37.63;;;17.65;;
2928;SDS011;1474;51.460;7.150;2023-02-21T05:57:06;40.22;;;18.10;;
2928;SDS011;1474;51.460;7.150;2023-02-21T05:59:31;35.15;;;17.10;;
2928;SDS011;1474;51.460;7.150;2023-02-21T06:01:57;34.65;;;15.93;;
2928;SDS011;1474;51.460;7.150;2023-02-21T06:04:22;36.75;;;16.88;;
2928;SDS011;1474;51.460;7.150;2023-02-21T06:06:49;34.97;;;17.20;;
2928;SDS011;1474;51.460;7.150;2023-02-21T06:09:15;36.25;;;16.83;;
2928;SDS011;1474;51.460;7.150;2023-02-21T06:11:44;37.30;;;17.17;;
2928;SDS011;1474;51.460;7.150;2023-02-21T06:14:14;40.17;;;18.05;;
2928;SDS011;1474;51.460;7.150;2023-02-21T06:16:42;42.30;;;17.15;;
2928;SDS011;1474;51.460;7.150;2023-02-21T06:19:09;40.85;;;18.58;;
2928;SDS011;1474;51.460;7.150;2023-02-21T06:21:36;37.75;;;15.23;;
2928;SDS011;1474;51.460;7.150;2023-02-21T06:24:03;38.45;;;17.88;;
2928;SDS011;1474;51.460;7.150;2023-02-21T06:26:29;40.30;;;19.55;;
2928;SDS011;1474;51.460;7.150;2023-02-21T06:28:55;34.40;;;15.90;;
2928;SDS011;1474;51.460;7.150;2023-02-21T06:31:20;35.85;;;15.43;;
2928;SDS011;1474;51.460;7.150;2023-02-21T06:33:47;43.80;;;18.95;;
2928;SDS011;1474;51.460;7.150;2023-02-21T06:36:23;42.50;;;18.85;;
2928;SDS011;1474;51.460;7.150;2023-02-21T06:38:51;46.97;;;18.80;;
2928;SDS011;1474;51.460;7.150;2023-02-21T06:41:20;38.17;;;16.23;;
2928;SDS011;1474;51.460;7.150;2023-02-21T06:43:51;42.83;;;16.30;;
2928;SDS011;1474;51.460;7.150;2023-02-21T06:46:19;38.88;;;17.33;;
2928;SDS011;1474;51.460;7.150;2023-02-21T06:48:46;41.55;;;17.05;;
2928;SDS011;1474;51.460;7.150;2023-02-21T06:51:12;43.95;;;17.98;;
2928;SDS011;1474;51.460;7.150;2023-02-21T06:53:38;38.53;;;16.83;;
2928;SDS011;1474;51.460;7.150;2023-02-21T06:56:05;40.38;;;16.90;;
2928;SDS011;1474;51.460;7.150;2023-02-21T06:58:32;38.72;;;18.17;;
2928;SDS011;1474;51.460;7.150;2023-02-21T07:00:57;39.95;;;17.00;;
2928;SDS011;1474;51.460;7.150;2023-02-21T07:03:23;42.00;;;18.17;;
2928;SDS011;1474;51.460;7.150;2023-02-21T07:05:49;40.90;;;16.40;;
2928;SDS011;1474;51.460;7.150;2023-02-21T07:08:14;39.22;;;18.13;;
2928;SDS011;1474;51.460;7.150;2023-02-21T07:10:40;42.90;;;19.40;;
2928;SDS011;1474;51.460;7.150;2023-02-21T07:13:06;37.90;;;15.82;;
2928;SDS011;1474;51.460;7.150;2023-02-21T07:15:31;51.63;;;18.23;;
2928;SDS011;1474;51.460;7.150;2023-02-21T07:17:57;40.72;;;17.63;;
2928;SDS011;1474;51.460;7.150;2023-02-21T07:20:22;36.47;;;16.88;;
2928;SDS011;1474;51.460;7.150;2023-02-21T07:22:48;39.15;;;16.60;;
2928;SDS011;1474;51.460;7.150;2023-02-21T07:25:15;40.58;;;18.08;;
2928;SDS011;1474;51.460;7.150;2023-02-21T07:27:42;38.20;;;16.60;;
2928;SDS011;1474;51.460;7.150;2023-02-21T07:30:09;36.45;;;16.67;;
2928;SDS011;1474;51.460;7.150;2023-02-21T07:32:35;38.50;;;16.75;;
2928;SDS011;1474;51.460;7.150;2023-02-21T07:35:01;37.53;;;16.63;;
2928;SDS011;1474;51.460;7.150;2023-02-21T07:37:26;34.92;;;15.95;;
2928;SDS011;1474;51.460;7.150;2023-02-21T07:39:52;39.28;;;15.45;;
2928;SDS011;1474;51.460;7.150;2023-02-21T07:42:18;47.20;;;16.42;;
2928;SDS011;1474;51.460;7.150;2023-02-21T07:44:43;47.42;;;19.88;;
2928;SDS011;1474;51.460;7.150;2023-02-21T07:47:09;40.53;;;17.40;;
2928;SDS011;1474;51.460;7.150;2023-02-21T07:49:38;41.42;;;17.90;;
2928;SDS011;1474;51.460;7.150;2023-02-21T07:52:04;41.58;;;17.58;;
2928;SDS011;1474;51.460;7.150;2023-02-21T07:54:29;49.55;;;19.45;;
2928;SDS011;1474;51.460;7.150;2023-02-21T07:56:55;34.20;;;14.98;;
2928;SDS011;1474;51.460;7.150;2023-02-21T07:59:20;40.78;;;17.35;;
2928;SDS011;1474;51.460;7.150;2023-02-21T08:01:46;47.95;;;18.35;;
2928;SDS011;1474;51.460;7.150;2023-02-21T08:04:12;45.75;;;18.00;;
2928;SDS011;1474;51.460;7.150;2023-02-21T08:06:38;41.67;;;18.65;;
2928;SDS011;1474;51.460;7.150;2023-02-21T08:09:04;45.60;;;16.52;;
2928;SDS011;1474;51.460;7.150;2023-02-21T08:11:30;37.30;;;15.88;;
2928;SDS011;1474;51.460;7.150;2023-02-21T08:13:58;38.67;;;16.40;;
2928;SDS011;1474;51.460;7.150;2023-02-21T08:16:23;39.08;;;14.80;;
2928;SDS011;1474;51.460;7.150;2023-02-21T08:18:49;33.75;;;13.82;;
2928;SDS011;1474;51.460;7.150;2023-02-21T08:21:15;33.80;;;13.27;;
2928;SDS011;1474;51.460;7.150;2023-02-21T08:23:40;43.00;;;14.93;;
2928;SDS011;1474;51.460;7.150;2023-02-21T08:26:09;36.85;;;14.13;;
2928;SDS011;1474;51.460;7.150;2023-02-21T08:28:35;38.10;;;15.50;;
2928;SDS011;1474;51.460;7.150;2023-02-21T08:31:01;34.85;;;14.95;;
2928;SDS011;1474;51.460;7.150;2023-02-21T08:33:27;33.92;;;13.95;;
2928;SDS011;1474;51.460;7.150;2023-02-21T08:35:53;40.70;;;15.82;;
2928;SDS011;1474;51.460;7.150;2023-02-21T08:38:19;32.25;;;15.20;;
2928;SDS011;1474;51.460;7.150;2023-02-21T08:40:44;34.28;;;13.48;;
2928;SDS011;1474;51.460;7.150;2023-02-21T08:43:10;31.08;;;13.57;;
2928;SDS011;1474;51.460;7.150;2023-02-21T08:45:36;41.28;;;15.52;;
2928;SDS011;1474;51.460;7.150;2023-02-21T08:48:02;42.97;;;15.90;;
2928;SDS011;1474;51.460;7.150;2023-02-21T08:50:28;36.50;;;15.77;;
2928;SDS011;1474;51.460;7.150;2023-02-21T08:52:55;37.05;;;15.55;;
2928;SDS011;1474;51.460;7.150;2023-02-21T08:55:21;37.88;;;16.02;;
2928;SDS011;1474;51.460;7.150;2023-02-21T08:57:48;34.45;;;16.00;;
2928;SDS011;1474;51.460;7.150;2023-02-21T09:00:15;36.70;;;15.32;;
2928;SDS011;1474;51.460;7.150;2023-02-21T09:02:42;34.40;;;14.05;;
2928;SDS011;1474;51.460;7.150;2023-02-21T09:05:30;30.92;;;16.23;;
2928;SDS011;1474;51.460;7.150;2023-02-21T09:07:56;32.22;;;13.85;;
2928;SDS011;1474;51.460;7.150;2023-02-21T09:10:27;36.38;;;14.35;;
2928;SDS011;1474;51.460;7.150;2023-02-21T09:12:54;32.13;;;13.60;;
2928;SDS011;1474;51.460;7.150;2023-02-21T09:15:20;36.53;;;14.52;;
2928;SDS011;1474;51.460;7.150;2023-02-21T09:17:45;30.10;;;13.27;;
2928;SDS011;1474;51.460;7.150;2023-02-21T09:20:15;28.48;;;12.88;;
2928;SDS011;1474;51.460;7.150;2023-02-21T09:22:45;26.92;;;11.68;;
2928;SDS011;1474;51.460;7.150;2023-02-21T09:25:11;29.35;;;12.50;;
2928;SDS011;1474;51.460;7.150;2023-02-21T09:27:38;28.45;;;13.35;;
2928;SDS011;1474;51.460;7.150;2023-02-21T09:30:12;27.50;;;11.93;;
2928;SDS011;1474;51.460;7.150;2023-02-21T09:32:40;30.73;;;12.30;;
2928;SDS011;1474;51.460;7.150;2023-02-21T09:35:06;24.10;;;10.68;;
2928;SDS011;1474;51.460;7.150;2023-02-21T09:37:32;27.40;;;11.40;;
2928;SDS011;1474;51.460;7.150;2023-02-21T09:39:57;28.25;;;11.63;;
2928;SDS011;1474;51.460;7.150;2023-02-21T09:42:26;29.75;;;13.50;;
2928;SDS011;1474;51.460;7.150;2023-02-21T09:44:54;32.45;;;13.60;;
2928;SDS011;1474;51.460;7.150;2023-02-21T09:47:25;31.15;;;12.55;;
2928;SDS011;1474;51.460;7.150;2023-02-21T09:50:02;29.60;;;12.48;;
2928;SDS011;1474;51.460;7.150;2023-02-21T09:52:34;36.33;;;15.00;;
2928;SDS011;1474;51.460;7.150;2023-02-21T09:55:26;24.77;;;11.80;;
2928;SDS011;1474;51.460;7.150;2023-02-21T09:58:14;31.30;;;11.65;;
2928;SDS011;1474;51.460;7.150;2023-02-21T10:00:42;31.02;;;12.05;;
2928;SDS011;1474;51.460;7.150;2023-02-21T10:08:59;29.25;;;13.57;;
2928;SDS011;1474;51.460;7.150;2023-02-21T10:19:57;23.77;;;10.23;;
2928;SDS011;1474;51.460;7.150;2023-02-21T10:22:30;23.83;;;10.77;;
2928;SDS011;1474;51.460;7.150;2023-02-21T10:24:59;23.77;;;11.43;;
2928;SDS011;1474;51.460;7.150;2023-02-21T10:27:40;31.33;;;11.68;;
2928;SDS011;1474;51.460;7.150;2023-02-21T10:30:06;22.27;;;11.13;;
2928;SDS011;1474;51.460;7.150;2023-02-21T10:32:35;25.80;;;11.13;;
2928;SDS011;1474;51.460;7.150;2023-02-21T10:35:01;29.52;;;13.88;;
2928;SDS011;1474;51.460;7.150;2023-02-21T10:38:01;24.90;;;11.38;;
2928;SDS011;1474;51.460;7.150;2023-02-21T10:40:43;29.73;;;11.18;;
2928;SDS011;1474;51.460;7.150;2023-02-21T10:43:25;22.90;;;9.98;;
2928;SDS011;1474;51.460;7.150;2023-02-21T10:48:30;24.33;;;10.23;;
2928;SDS011;1474;51.460;7.150;2023-02-21T10:54:19;22.75;;;9.43;;
2928;SDS011;1474;51.460;7.150;2023-02-21T10:56:50;24.13;;;11.02;;
2928;SDS011;1474;51.460;7.150;2023-02-21T10:59:18;19.50;;;7.45;;
2928;SDS011;1474;51.460;7.150;2023-02-21T11:01:48;21.33;;;10.45;;
2928;SDS011;1474;51.460;7.150;2023-02-21T11:09:31;19.13;;;9.20;;
2928;SDS011;1474;51.460;7.150;2023-02-21T11:14:26;24.73;;;11.27;;
2928;SDS011;1474;51.460;7.150;2023-02-21T11:22:40;23.48;;;9.73;;
2928;SDS011;1474;51.460;7.150;2023-02-21T11:27:44;22.25;;;9.27;;
2928;SDS011;1474;51.460;7.150;2023-02-21T11:30:21;21.90;;;10.45;;
2928;SDS011;1474;51.460;7.150;2023-02-21T11:32:48;16.98;;;9.30;;
2928;SDS011;1474;51.460;7.150;2023-02-21T11:35:29;18.95;;;9.07;;
2928;SDS011;1474;51.460;7.150;2023-02-21T11:38:04;21.98;;;9.13;;
2928;SDS011;1474;51.460;7.150;2023-02-21T11:45:59;21.33;;;9.25;;
2928;SDS011;1474;51.460;7.150;2023-02-21T11:48:41;20.60;;;10.45;;
2928;SDS011;1474;51.460;7.150;2023-02-21T11:51:17;20.42;;;9.75;;
2928;SDS011;1474;51.460;7.150;2023-02-21T11:54:05;21.80;;;9.60;;
2928;SDS011;1474;51.460;7.150;2023-02-21T11:56:38;16.10;;;6.90;;
2928;SDS011;1474;51.460;7.150;2023-02-21T11:59:28;17.60;;;8.18;;
2928;SDS011;1474;51.460;7.150;2023-02-21T12:02:21;21.55;;;9.27;;
2928;SDS011;1474;51.460;7.150;2023-02-21T12:08:17;17.15;;;7.95;;
2928;SDS011;1474;51.460;7.150;2023-02-21T12:11:07;19.10;;;9.63;;
2928;SDS011;1474;51.460;7.150;2023-02-21T12:16:41;18.95;;;8.75;;
2928;SDS011;1474;51.460;7.150;2023-02-21T12:36:06;19.17;;;9.07;;
2928;SDS011;1474;51.460;7.150;2023-02-21T12:43:37;19.73;;;8.10;;
2928;SDS011;1474;51.460;7.150;2023-02-21T12:46:51;21.70;;;9.43;;
2928;SDS011;1474;51.460;7.150;2023-02-21T12:57:25;14.85;;;8.25;;
2928;SDS011;1474;51.460;7.150;2023-02-21T13:00:19;18.67;;;8.50;;
2928;SDS011;1474;51.460;7.150;2023-02-21T13:05:19;13.88;;;7.35;;
2928;SDS011;1474;51.460;7.150;2023-02-21T13:07:56;13.75;;;6.60;;
2928;SDS011;1474;51.460;7.150;2023-02-21T13:10:52;16.55;;;8.57;;
2928;SDS011;1474;51.460;7.150;2023-02-21T13:13:26;17.77;;;8.10;;
2928;SDS011;1474;51.460;7.150;2023-02-21T13:15:56;18.58;;;9.63;;
2928;SDS011;1474;51.460;7.150;2023-02-21T13:18:29;16.08;;;8.30;;
2928;SDS011;1474;51.460;7.150;2023-02-21T13:23:48;15.38;;;7.95;;
2928;SDS011;1474;51.460;7.150;2023-02-21T13:29:42;16.92;;;7.75;;
2928;SDS011;1474;51.460;7.150;2023-02-21T13:32:12;16.73;;;8.13;;
2928;SDS011;1474;51.460;7.150;2023-02-21T13:34:58;20.55;;;9.45;;
2928;SDS011;1474;51.460;7.150;2023-02-21T13:37:26;16.95;;;9.48;;
2928;SDS011;1474;51.460;7.150;2023-02-21T13:39:56;17.73;;;9.52;;
2928;SDS011;1474;51.460;7.150;2023-02-21T13:42:29;17.35;;;9.02;;
2928;SDS011;1474;51.460;7.150;2023-02-21T13:45:17;19.42;;;9.75;;
2928;SDS011;1474;51.460;7.150;2023-02-21T13:55:40;19.45;;;9.25;;
2928;SDS011;1474;51.460;7.150;2023-02-21T14:01:12;18.35;;;9.95;;
2928;SDS011;1474;51.460;7.150;2023-02-21T14:03:43;21.15;;;10.80;;
2928;SDS011;1474;51.460;7.150;2023-02-21T14:08:46;19.92;;;9.93;;
2928;SDS011;1474;51.460;7.150;2023-02-21T14:11:19;20.33;;;10.52;;
2928;SDS011;1474;51.460;7.150;2023-02-21T14:19:25;22.17;;;10.30;;
2928;SDS011;1474;51.460;7.150;2023-02-21T14:24:45;22.48;;;10.55;;
2928;SDS011;1474;51.460;7.150;2023-02-21T14:29:43;24.95;;;10.77;;
2928;SDS011;1474;51.460;7.150;2023-02-21T14:32:44;22.83;;;10.45;;
2928;SDS011;1474;51.460;7.150;2023-02-21T14:43:20;19.70;;;8.77;;
2928;SDS011;1474;51.460;7.150;2023-02-21T14:48:52;29.35;;;10.77;;
2928;SDS011;1474;51.460;7.150;2023-02-21T14:54:52;21.35;;;10.38;;
2928;SDS011;1474;51.460;7.150;2023-02-21T15:08:10;25.42;;;11.52;;
2928;SDS011;1474;51.460;7.150;2023-02-21T15:10:51;28.50;;;11.23;;
2928;SDS011;1474;51.460;7.150;2023-02-21T15:13:28;23.48;;;11.65;;
2928;SDS011;1474;51.460;7.150;2023-02-21T15:16:06;23.75;;;11.10;;
2928;SDS011;1474;51.460;7.150;2023-02-21T15:18:35;26.52;;;11.50;;
2928;SDS011;1474;51.460;7.150;2023-02-21T15:23:46;22.45;;;11.43;;
2928;SDS011;1474;51.460;7.150;2023-02-21T15:26:20;22.08;;;11.40;;
2928;SDS011;1474;51.460;7.150;2023-02-21T15:34:15;29.30;;;11.80;;
2928;SDS011;1474;51.460;7.150;2023-02-21T15:41:50;23.33;;;11.65;;
2928;SDS011;1474;51.460;7.150;2023-02-21T15:44:31;31.08;;;12.32;;
2928;SDS011;1474;51.460;7.150;2023-02-21T15:47:04;22.38;;;11.40;;
2928;SDS011;1474;51.460;7.150;2023-02-21T15:49:34;22.52;;;10.38;;
2928;SDS011;1474;51.460;7.150;2023-02-21T15:52:04;22.80;;;10.73;;
2928;SDS011;1474;51.460;7.150;2023-02-21T15:54:31;23.45;;;11.13;;
2928;SDS011;1474;51.460;7.150;2023-02-21T15:57:01;22.23;;;10.38;;
2928;SDS011;1474;51.460;7.150;2023-02-21T15:59:34;20.92;;;9.90;;
2928;SDS011;1474;51.460;7.150;2023-02-21T16:04:42;24.17;;;10.10;;
2928;SDS011;1474;51.460;7.150;2023-02-21T16:07:17;23.38;;;10.15;;
2928;SDS011;1474;51.460;7.150;2023-02-21T16:10:06;22.00;;;10.30;;
2928;SDS011;1474;51.460;7.150;2023-02-21T16:12:36;23.27;;;10.68;;
2928;SDS011;1474;51.460;7.150;2023-02-21T16:15:05;21.95;;;10.07;;
2928;SDS011;1474;51.460;7.150;2023-02-21T16:17:43;26.38;;;10.68;;
2928;SDS011;1474;51.460;7.150;2023-02-21T16:22:37;21.05;;;10.02;;
2928;SDS011;1474;51.460;7.150;2023-02-21T16:27:39;20.50;;;9.18;;
2928;SDS011;1474;51.460;7.150;2023-02-21T16:30:10;22.05;;;10.73;;
2928;SDS011;1474;51.460;7.150;2023-02-21T16:32:44;27.65;;;10.73;;
2928;SDS011;1474;51.460;7.150;2023-02-21T16:35:11;25.52;;;11.55;;
2928;SDS011;1474;51.460;7.150;2023-02-21T16:37:39;27.75;;;10.60;;
2928;SDS011;1474;51.460;7.150;2023-02-21T16:40:16;26.63;;;12.02;;
2928;SDS011;1474;51.460;7.150;2023-02-21T16:42:46;27.83;;;11.63;;
2928;SDS011;1474;51.460;7.150;2023-02-21T16:45:12;25.92;;;11.55;;
2928;SDS011;1474;51.460;7.150;2023-02-21T16:47:38;27.88;;;12.10;;
2928;SDS011;1474;51.460;7.150;2023-02-21T16:50:04;32.75;;;13.07;;
2928;SDS011;1474;51.460;7.150;2023-02-21T16:52:38;26.45;;;11.35;;
2928;SDS011;1474;51.460;7.150;2023-02-21T16:55:04;28.42;;;11.57;;
2928;SDS011;1474;51.460;7.150;2023-02-21T16:57:30;31.10;;;12.13;;
2928;SDS011;1474;51.460;7.150;2023-02-21T16:59:56;27.73;;;11.82;;
2928;SDS011;1474;51.460;7.150;2023-02-21T17:02:21;30.08;;;11.73;;
2928;SDS011;1474;51.460;7.150;2023-02-21T17:04:48;25.52;;;11.88;;
2928;SDS011;1474;51.460;7.150;2023-02-21T17:07:14;26.40;;;13.13;;
2928;SDS011;1474;51.460;7.150;2023-02-21T17:09:40;27.23;;;12.30;;
2928;SDS011;1474;51.460;7.150;2023-02-21T17:12:06;35.72;;;13.43;;
2928;SDS011;1474;51.460;7.150;2023-02-21T17:14:32;25.50;;;11.77;;
2928;SDS011;1474;51.460;7.150;2023-02-21T17:16:58;28.33;;;11.93;;
2928;SDS011;1474;51.460;7.150;2023-02-21T17:19:24;29.55;;;11.10;;
2928;SDS011;1474;51.460;7.150;2023-02-21T17:21:50;25.25;;;11.93;;
2928;SDS011;1474;51.460;7.150;2023-02-21T17:24:16;28.33;;;10.68;;
2928;SDS011;1474;51.460;7.150;2023-02-21T17:26:42;26.08;;;11.35;;
2928;SDS011;1474;51.460;7.150;2023-02-21T17:29:09;29.30;;;10.82;;
2928;SDS011;1474;51.460;7.150;2023-02-21T17:31:35;24.10;;;10.60;;
2928;SDS011;1474;51.460;7.150;2023-02-21T17:34:01;26.40;;;10.73;;
2928;SDS011;1474;51.460;7.150;2023-02-21T17:36:27;30.13;;;12.48;;
2928;SDS011;1474;51.460;7.150;2023-02-21T17:38:53;31.20;;;13.77;;
2928;SDS011;1474;51.460;7.150;2023-02-21T17:41:22;36.15;;;14.55;;
2928;SDS011;1474;51.460;7.150;2023-02-21T17:43:48;30.48;;;13.25;;
2928;SDS011;1474;51.460;7.150;2023-02-21T17:46:14;31.88;;;14.07;;
2928;SDS011;1474;51.460;7.150;2023-02-21T17:48:42;29.88;;;13.07;;
2928;SDS011;1474;51.460;7.150;2023-02-21T17:51:08;31.73;;;13.10;;
2928;SDS011;1474;51.460;7.150;2023-02-21T17:53:40;29.00;;;11.50;;
2928;SDS011;1474;51.460;7.150;2023-02-21T17:56:05;33.47;;;13.30;;
2928;SDS011;1474;51.460;7.150;2023-02-21T17:58:31;31.25;;;11.70;;
2928;SDS011;1474;51.460;7.150;2023-02-21T18:00:57;35.60;;;13.43;;
2928;SDS011;1474;51.460;7.150;2023-02-21T18:03:23;28.90;;;12.02;;
2928;SDS011;1474;51.460;7.150;2023-02-21T18:05:49;30.88;;;12.25;;
2928;SDS011;1474;51.460;7.150;2023-02-21T18:08:15;29.35;;;11.57;;
2928;SDS011;1474;51.460;7.150;2023-02-21T18:10:42;30.73;;;12.80;;
2928;SDS011;1474;51.460;7.150;2023-02-21T18:13:10;30.05;;;13.18;;
2928;SDS011;1474;51.460;7.150;2023-02-21T18:15:37;34.40;;;13.55;;
2928;SDS011;1474;51.460;7.150;2023-02-21T18:18:03;33.65;;;12.48;;
2928;SDS011;1474;51.460;7.150;2023-02-21T18:20:30;33.03;;;13.50;;
2928;SDS011;1474;51.460;7.150;2023-02-21T18:22:56;29.27;;;12.93;;
2928;SDS011;1474;51.460;7.150;2023-02-21T18:25:22;29.83;;;11.30;;
2928;SDS011;1474;51.460;7.150;2023-02-21T18:27:48;33.42;;;14.93;;
2928;SDS011;1474;51.460;7.150;2023-02-21T18:30:15;27.95;;;12.25;;
2928;SDS011;1474;51.460;7.150;2023-02-21T18:32:41;31.60;;;11.90;;
2928;SDS011;1474;51.460;7.150;2023-02-21T18:35:07;33.85;;;11.75;;
2928;SDS011;1474;51.460;7.150;2023-02-21T18:37:33;34.28;;;14.05;;
2928;SDS011;1474;51.460;7.150;2023-02-21T18:39:59;33.35;;;13.10;;
2928;SDS011;1474;51.460;7.150;2023-02-21T18:42:25;30.88;;;13.52;;